createdAt,value
2022-07-26T00:01:03.135Z,100.00
2022-07-26T00:03:31.166Z,100.00
2022-07-26T00:05:59.655Z,100.00
2022-07-26T00:08:27.720Z,100.00
2022-07-26T00:10:57.021Z,100.00
2022-07-26T00:13:24.992Z,100.00
2022-07-26T00:15:58.594Z,100.00
2022-07-26T00:18:27.130Z,100.00
2022-07-26T00:20:55.498Z,100.00
2022-07-26T00:23:23.923Z,100.00
2022-07-26T00:25:52.030Z,100.00
2022-07-26T00:28:21.341Z,100.00
2022-07-26T00:30:49.442Z,100.00
2022-07-26T00:33:17.437Z,100.00
2022-07-26T00:35:45.685Z,100.00
2022-07-26T00:38:13.744Z,100.00
2022-07-26T00:40:41.765Z,100.00
2022-07-26T00:43:09.833Z,100.00
2022-07-26T00:45:39.300Z,100.00
2022-07-26T00:48:10.035Z,100.00
2022-07-26T00:50:38.118Z,100.00
2022-07-26T00:53:06.515Z,100.00
2022-07-26T00:55:34.566Z,100.00
2022-07-26T00:58:02.903Z,100.00
2022-07-26T01:00:31.295Z,100.00
2022-07-26T01:03:01.560Z,100.00
2022-07-26T01:05:30.303Z,100.00
2022-07-26T01:07:59.289Z,100.00
2022-07-26T01:10:27.300Z,100.00
2022-07-26T01:12:55.309Z,100.00
2022-07-26T01:15:23.489Z,100.00
2022-07-26T01:17:51.563Z,100.00
2022-07-26T01:20:21.201Z,100.00
2022-07-26T01:22:50.623Z,100.00
2022-07-26T01:25:29.630Z,100.00
2022-07-26T01:27:57.889Z,100.00
2022-07-26T01:30:25.883Z,100.00
2022-07-26T01:32:53.882Z,100.00
2022-07-26T01:35:22.337Z,100.00
2022-07-26T01:37:51.720Z,100.00
2022-07-26T01:40:19.807Z,100.00
2022-07-26T01:42:47.902Z,100.00
2022-07-26T01:45:15.846Z,100.00
2022-07-26T01:47:44.646Z,100.00
2022-07-26T01:50:12.756Z,100.00
2022-07-26T01:52:40.751Z,100.00
2022-07-26T01:55:11.207Z,100.00
2022-07-26T01:57:39.236Z,100.00
2022-07-26T02:00:08.977Z,100.00
2022-07-26T02:02:37.342Z,100.00
2022-07-26T02:05:06.151Z,100.00
2022-07-26T02:07:38.744Z,100.00
2022-07-26T02:10:08.171Z,100.00
2022-07-26T02:12:37.863Z,100.00
2022-07-26T02:15:07.379Z,100.00
2022-07-26T02:17:35.422Z,100.00
2022-07-26T02:20:03.727Z,100.00
2022-07-26T02:22:31.776Z,100.00
2022-07-26T02:25:04.791Z,100.00
2022-07-26T02:27:33.463Z,100.00
2022-07-26T02:30:03.114Z,100.00
2022-07-26T02:32:31.114Z,100.00
2022-07-26T02:34:59.388Z,100.00
2022-07-26T02:37:27.460Z,100.00
2022-07-26T02:39:55.432Z,100.00
2022-07-26T02:42:23.420Z,100.00
2022-07-26T02:44:51.433Z,100.00
2022-07-26T02:47:20.883Z,100.00
2022-07-26T02:49:48.879Z,100.00
2022-07-26T02:52:17.182Z,100.00
2022-07-26T02:54:45.484Z,100.00
2022-07-26T02:57:14.666Z,100.00
2022-07-26T02:59:42.775Z,100.00
2022-07-26T03:02:10.747Z,100.00
2022-07-26T03:04:40.048Z,100.00
2022-07-26T03:07:08.017Z,100.00
2022-07-26T03:09:36.002Z,100.00
2022-07-26T03:12:04.402Z,100.00
2022-07-26T03:14:32.369Z,100.00
2022-07-26T03:17:00.380Z,100.00
2022-07-26T03:19:28.359Z,100.00
2022-07-26T03:21:57.807Z,100.00
2022-07-26T03:24:25.837Z,100.00
2022-07-26T03:26:53.756Z,100.00
2022-07-26T03:29:21.731Z,100.00
2022-07-26T03:31:49.715Z,100.00
2022-07-26T03:34:17.717Z,100.00
2022-07-26T03:36:45.727Z,100.00
2022-07-26T03:39:15.170Z,100.00
2022-07-26T03:41:43.155Z,100.00
2022-07-26T03:44:11.528Z,100.00
2022-07-26T03:46:39.806Z,100.00
2022-07-26T03:49:10.888Z,100.00
2022-07-26T03:51:41.225Z,100.00
2022-07-26T03:54:09.781Z,100.00
2022-07-26T03:56:38.618Z,100.00
2022-07-26T03:59:10.062Z,100.00
2022-07-26T04:01:41.922Z,100.00
2022-07-26T04:04:10.811Z,100.00
2022-07-26T04:06:40.159Z,100.00
2022-07-26T04:09:08.973Z,100.00
2022-07-26T04:11:37.089Z,100.00
2022-07-26T04:14:06.775Z,100.00
2022-07-26T04:16:36.948Z,100.00
2022-07-26T04:19:07.138Z,100.00
2022-07-26T04:21:35.425Z,100.00
2022-07-26T04:24:03.543Z,100.00
2022-07-26T04:26:31.777Z,100.00
2022-07-26T04:28:59.980Z,100.00
2022-07-26T04:31:29.438Z,100.00
2022-07-26T04:34:05.110Z,100.00
2022-07-26T04:36:33.437Z,100.00
2022-07-26T04:39:01.524Z,100.00
2022-07-26T04:41:29.511Z,100.00
2022-07-26T04:43:58.145Z,100.00
2022-07-26T04:46:26.300Z,100.00
2022-07-26T04:48:55.787Z,100.00
2022-07-26T04:51:23.807Z,100.00
2022-07-26T04:53:52.387Z,100.00
2022-07-26T04:56:20.406Z,100.00
2022-07-26T04:58:48.484Z,100.00
2022-07-26T05:01:16.692Z,100.00
2022-07-26T05:03:44.647Z,100.00
2022-07-26T05:06:14.018Z,100.00
2022-07-26T05:08:43.328Z,100.00
2022-07-26T05:11:11.425Z,100.00
2022-07-26T05:13:39.445Z,100.00
2022-07-26T05:16:11.908Z,100.00
2022-07-26T05:18:46.060Z,100.00
2022-07-26T05:21:19.748Z,100.00
2022-07-26T05:23:47.913Z,100.00
2022-07-26T05:26:16.101Z,100.00
2022-07-26T05:28:44.134Z,100.00
2022-07-26T05:31:12.372Z,100.00
2022-07-26T05:33:43.817Z,100.00
2022-07-26T05:36:11.869Z,100.00
2022-07-26T05:38:41.768Z,100.00
2022-07-26T05:41:10.137Z,100.00
2022-07-26T05:43:41.160Z,100.00
2022-07-26T05:46:11.164Z,100.00
2022-07-26T05:48:40.267Z,100.00
2022-07-26T05:51:08.550Z,100.00
2022-07-26T05:53:36.799Z,100.00
2022-07-26T05:56:22.979Z,100.00
2022-07-26T05:58:51.054Z,100.00
2022-07-26T06:01:19.447Z,100.00
2022-07-26T06:03:47.707Z,100.00
2022-07-26T06:06:15.888Z,100.00
2022-07-26T06:08:44.227Z,100.00
2022-07-26T06:11:12.246Z,100.00
2022-07-26T06:13:41.821Z,100.00
2022-07-26T06:16:09.955Z,100.00
2022-07-26T06:18:38.013Z,100.00
2022-07-26T06:21:06.291Z,100.00
2022-07-26T06:23:35.219Z,100.00
2022-07-26T06:26:05.318Z,100.00
2022-07-26T06:28:34.036Z,100.00
2022-07-26T06:31:04.039Z,100.00
2022-07-26T06:33:32.150Z,100.00
2022-07-26T06:36:00.701Z,100.00
2022-07-26T06:38:29.278Z,100.00
2022-07-26T06:40:57.399Z,100.00
2022-07-26T06:43:25.528Z,100.00
2022-07-26T06:45:53.629Z,100.00
2022-07-26T06:48:23.049Z,100.00
2022-07-26T06:50:51.341Z,100.00
2022-07-26T06:53:19.935Z,100.00
2022-07-26T06:55:48.023Z,100.00
2022-07-26T06:58:16.186Z,100.00
2022-07-26T07:00:44.314Z,100.00
2022-07-26T07:03:12.424Z,100.00
2022-07-26T07:05:45.394Z,100.00
2022-07-26T07:08:17.416Z,100.00
2022-07-26T07:10:46.356Z,100.00
2022-07-26T07:13:14.466Z,100.00
2022-07-26T07:15:42.561Z,100.00
2022-07-26T07:18:10.750Z,100.00
2022-07-26T07:20:39.510Z,100.00
2022-07-26T07:23:09.383Z,100.00
2022-07-26T07:25:37.528Z,100.00
2022-07-26T07:28:05.992Z,100.00
2022-07-26T07:30:34.201Z,100.00
2022-07-26T07:33:03.501Z,100.00
2022-07-26T07:35:32.867Z,100.00
2022-07-26T07:38:02.015Z,100.00
2022-07-26T07:40:31.832Z,100.00
2022-07-26T07:43:00.020Z,100.00
2022-07-26T07:45:28.273Z,100.00
2022-07-26T07:47:56.386Z,100.00
2022-07-26T07:50:27.126Z,100.00
2022-07-26T07:52:59.259Z,100.00
2022-07-26T07:55:46.179Z,100.00
2022-07-26T07:58:17.379Z,100.00
2022-07-26T08:00:47.200Z,100.00
2022-07-26T08:03:18.038Z,100.00
2022-07-26T08:05:49.710Z,100.00
2022-07-26T08:08:19.115Z,100.00
2022-07-26T08:10:52.189Z,100.00
2022-07-26T08:13:23.013Z,100.00
2022-07-26T08:15:52.005Z,100.00
2022-07-26T08:18:22.568Z,100.00
2022-07-26T08:20:52.066Z,100.00
2022-07-26T08:23:20.650Z,100.00
2022-07-26T08:25:56.260Z,100.00
2022-07-26T08:31:16.378Z,100.00
2022-07-26T08:33:46.457Z,100.00
2022-07-26T08:36:15.475Z,100.00
2022-07-26T08:38:43.713Z,100.00
2022-07-26T08:41:12.903Z,100.00
2022-07-26T08:43:50.994Z,100.00
2022-07-26T08:46:25.212Z,100.00
2022-07-26T08:48:54.819Z,100.00
2022-07-26T08:51:24.600Z,100.00
2022-07-26T08:54:01.910Z,100.00
2022-07-26T08:56:32.808Z,100.00
2022-07-26T08:59:04.857Z,100.00
2022-07-26T09:01:33.131Z,100.00
2022-07-26T09:04:31.056Z,100.00
2022-07-26T09:07:02.168Z,100.00
2022-07-26T09:09:30.383Z,100.00
2022-07-26T09:11:59.653Z,100.00
2022-07-26T09:14:41.931Z,100.00
2022-07-26T09:17:09.932Z,100.00
2022-07-26T09:19:38.020Z,100.00
2022-07-26T09:22:11.766Z,100.00
2022-07-26T09:24:42.604Z,100.00
2022-07-26T09:27:12.821Z,99.37
2022-07-26T09:29:47.167Z,91.81
2022-07-26T09:32:18.438Z,84.56
2022-07-26T09:34:53.055Z,87.50
2022-07-26T09:37:35.476Z,87.02
2022-07-26T09:40:06.088Z,77.82
2022-07-26T09:42:34.124Z,80.80
2022-07-26T09:45:04.368Z,79.45
2022-07-26T09:47:39.937Z,82.67
2022-07-26T09:50:16.105Z,84.46
2022-07-26T09:52:59.670Z,78.63
2022-07-26T09:55:32.924Z,80.83
2022-07-26T09:58:07.650Z,75.89
2022-07-26T10:00:37.230Z,78.79
2022-07-26T10:03:05.488Z,73.06
2022-07-26T10:05:34.282Z,77.88
2022-07-26T10:08:02.736Z,74.04
2022-07-26T10:10:37.252Z,75.17
2022-07-26T10:13:06.842Z,72.15
2022-07-26T10:15:38.375Z,73.66
2022-07-26T10:18:08.415Z,74.36
2022-07-26T10:20:42.471Z,74.29
2022-07-26T10:23:35.640Z,69.75
2022-07-26T10:26:04.920Z,69.35
2022-07-26T10:28:36.620Z,70.21
2022-07-26T10:31:30.590Z,67.10
2022-07-26T10:34:01.031Z,68.37
2022-07-26T10:36:35.887Z,71.15
2022-07-26T10:39:10.602Z,65.58
2022-07-26T10:41:44.806Z,66.75
2022-07-26T10:44:26.925Z,61.71
2022-07-26T10:47:20.134Z,60.72
2022-07-26T10:49:56.945Z,55.22
2022-07-26T10:52:28.008Z,55.71
2022-07-26T10:55:10.225Z,56.29
2022-07-26T10:57:40.538Z,57.96
2022-07-26T11:00:11.838Z,57.43
2022-07-26T11:02:43.894Z,50.60
2022-07-26T11:05:14.566Z,48.79
2022-07-26T11:08:01.725Z,47.79
2022-07-26T11:10:31.947Z,48.97
2022-07-26T11:13:08.598Z,47.89
2022-07-26T11:15:37.194Z,47.56
2022-07-26T11:18:30.740Z,48.06
2022-07-26T11:21:00.381Z,48.11
2022-07-26T11:23:31.313Z,45.77
2022-07-26T11:26:15.088Z,45.30
2022-07-26T11:28:52.992Z,45.05
2022-07-26T11:31:50.923Z,45.91
2022-07-26T11:34:20.475Z,45.39
2022-07-26T11:36:49.057Z,45.69
2022-07-26T11:39:24.543Z,46.68
2022-07-26T11:41:57.659Z,44.81
2022-07-26T11:44:26.438Z,44.13
2022-07-26T11:46:54.968Z,42.81
2022-07-26T11:49:51.828Z,43.07
2022-07-26T11:52:15.620Z,43.05
2022-07-26T11:54:54.564Z,43.19
2022-07-26T11:57:25.396Z,42.07
2022-07-26T11:59:53.517Z,41.09
2022-07-26T12:02:22.653Z,41.17
2022-07-26T12:05:16.829Z,40.65
2022-07-26T12:07:56.370Z,41.55
2022-07-26T12:10:25.062Z,40.36
2022-07-26T12:13:09.089Z,40.75
2022-07-26T12:15:48.269Z,39.77
2022-07-26T12:18:25.227Z,39.18
2022-07-26T12:21:05.503Z,38.95
2022-07-26T12:23:45.174Z,40.31
2022-07-26T12:26:23.490Z,39.58
2022-07-26T12:28:51.727Z,39.24
2022-07-26T12:31:29.224Z,38.92
2022-07-26T12:33:58.050Z,39.94
2022-07-26T12:36:30.009Z,39.79
2022-07-26T12:38:59.692Z,39.53
2022-07-26T12:41:35.866Z,40.28
2022-07-26T12:44:05.047Z,38.48
2022-07-26T12:46:34.529Z,40.14
2022-07-26T12:49:02.993Z,40.43
2022-07-26T12:51:32.622Z,40.81
2022-07-26T12:54:00.844Z,40.05
2022-07-26T12:56:28.960Z,40.57
2022-07-26T12:59:01.262Z,41.32
2022-07-26T13:01:30.450Z,40.12
2022-07-26T13:03:58.762Z,41.06
2022-07-26T13:06:27.294Z,40.03
2022-07-26T13:08:57.136Z,40.63
2022-07-26T13:11:25.291Z,41.22
2022-07-26T13:13:53.405Z,39.21
2022-07-26T13:16:21.506Z,39.77
2022-07-26T13:18:49.679Z,39.72
2022-07-26T13:21:18.110Z,39.34
2022-07-26T13:23:46.135Z,39.25
2022-07-26T13:26:15.641Z,39.96
2022-07-26T13:28:44.425Z,38.89
2022-07-26T13:31:17.701Z,39.93
2022-07-26T13:33:45.873Z,39.58
2022-07-26T13:36:14.077Z,40.46
2022-07-26T13:38:43.048Z,40.10
2022-07-26T13:41:11.216Z,38.83
2022-07-26T13:43:40.748Z,38.16
2022-07-26T13:46:08.890Z,37.12
2022-07-26T13:48:37.061Z,39.18
2022-07-26T13:51:05.669Z,40.00
2022-07-26T13:53:34.077Z,39.04
2022-07-26T13:56:02.493Z,38.98
2022-07-26T13:58:31.126Z,40.23
2022-07-26T14:01:02.426Z,39.96
2022-07-26T14:03:35.251Z,40.06
2022-07-26T14:06:03.869Z,38.99
2022-07-26T14:08:31.880Z,39.52
2022-07-26T14:10:59.868Z,38.57
2022-07-26T14:13:27.879Z,38.76
2022-07-26T14:15:56.206Z,39.01
2022-07-26T14:18:25.557Z,39.61
2022-07-26T14:20:54.190Z,39.34
2022-07-26T14:23:22.184Z,39.04
2022-07-26T14:25:50.724Z,38.87
2022-07-26T14:28:18.831Z,38.91
2022-07-26T14:30:47.025Z,38.96
2022-07-26T14:33:15.245Z,39.04
2022-07-26T14:35:45.026Z,38.91
2022-07-26T14:38:15.703Z,38.71
2022-07-26T14:40:47.582Z,38.83
2022-07-26T14:43:15.670Z,39.78
2022-07-26T14:45:46.616Z,39.06
2022-07-26T14:48:31.541Z,38.97
2022-07-26T14:51:09.473Z,39.64
2022-07-26T14:53:38.078Z,39.63
2022-07-26T14:56:06.530Z,39.58
2022-07-26T14:58:34.485Z,39.82
2022-07-26T15:01:02.732Z,39.40
2022-07-26T15:03:34.393Z,39.63
2022-07-26T15:06:02.535Z,40.44
2022-07-26T15:08:32.123Z,38.84
2022-07-26T15:11:00.201Z,39.40
2022-07-26T15:13:28.332Z,40.99
2022-07-26T15:15:56.513Z,40.27
2022-07-26T15:18:24.558Z,40.86
2022-07-26T15:20:52.661Z,39.64
2022-07-26T15:23:20.885Z,39.78
2022-07-26T15:25:50.349Z,40.95
2022-07-26T15:28:18.354Z,40.09
2022-07-26T15:30:46.413Z,40.26
2022-07-26T15:33:14.927Z,39.47
2022-07-26T15:35:43.843Z,39.53
2022-07-26T15:38:11.918Z,40.09
2022-07-26T15:40:40.400Z,39.65
2022-07-26T15:43:10.088Z,39.69
2022-07-26T15:45:41.343Z,38.81
2022-07-26T15:48:17.026Z,39.08
2022-07-26T15:50:46.532Z,39.17
2022-07-26T15:53:17.269Z,40.09
2022-07-26T15:55:45.263Z,39.65
2022-07-26T15:58:14.797Z,39.76
2022-07-26T16:00:43.805Z,40.42
2022-07-26T16:03:12.997Z,40.84
2022-07-26T16:05:41.170Z,41.59
2022-07-26T16:08:09.216Z,41.52
2022-07-26T16:10:38.177Z,41.17
2022-07-26T16:13:06.440Z,40.16
2022-07-26T16:15:35.895Z,40.55
2022-07-26T16:18:06.468Z,40.88
2022-07-26T16:20:34.857Z,40.95
2022-07-26T16:23:03.137Z,41.42
2022-07-26T16:25:31.130Z,40.98
2022-07-26T16:27:59.474Z,41.15
2022-07-26T16:30:28.083Z,41.32
2022-07-26T16:32:57.497Z,41.49
2022-07-26T16:35:25.676Z,42.12
2022-07-26T16:37:53.647Z,41.86
2022-07-26T16:40:24.677Z,41.75
2022-07-26T16:42:52.737Z,42.38
2022-07-26T16:45:21.474Z,42.05
2022-07-26T16:47:49.807Z,42.69
2022-07-26T16:50:25.136Z,43.02
2022-07-26T16:52:55.537Z,42.34
2022-07-26T16:55:23.566Z,42.51
2022-07-26T16:57:51.608Z,43.34
2022-07-26T17:00:22.144Z,43.36
2022-07-26T17:02:50.220Z,43.29
2022-07-26T17:05:19.634Z,44.77
2022-07-26T17:07:47.676Z,45.54
2022-07-26T17:10:15.711Z,45.35
2022-07-26T17:12:43.892Z,45.22
2022-07-26T17:15:12.621Z,46.95
2022-07-26T17:17:43.750Z,45.65
2022-07-26T17:20:15.337Z,45.92
2022-07-26T17:22:46.206Z,45.92
2022-07-26T17:25:14.696Z,46.71
2022-07-26T17:27:42.774Z,46.29
2022-07-26T17:30:12.222Z,48.33
2022-07-26T17:32:40.340Z,46.94
2022-07-26T17:35:09.949Z,48.20
2022-07-26T17:37:37.960Z,47.00
2022-07-26T17:40:11.340Z,50.05
2022-07-26T17:42:40.000Z,49.51
2022-07-26T17:45:09.040Z,50.13
2022-07-26T17:47:37.103Z,51.49
2022-07-26T17:50:35.229Z,53.83
2022-07-26T17:52:55.848Z,54.04
2022-07-26T17:55:25.410Z,54.69
2022-07-26T17:57:53.718Z,55.53
2022-07-26T18:00:26.149Z,57.07
2022-07-26T18:02:57.554Z,57.37
2022-07-26T18:05:33.084Z,58.19
2022-07-26T18:08:03.369Z,58.81
2022-07-26T18:10:33.154Z,61.29
2022-07-26T18:13:01.215Z,61.77
2022-07-26T18:15:29.324Z,61.30
2022-07-26T18:17:57.365Z,60.72
2022-07-26T18:20:25.464Z,61.44
2022-07-26T18:22:54.689Z,60.71
2022-07-26T18:25:22.763Z,60.41
2022-07-26T18:27:53.896Z,60.50
2022-07-26T18:30:22.129Z,61.88
2022-07-26T18:32:50.244Z,62.45
2022-07-26T18:35:18.361Z,61.63
2022-07-26T18:37:46.755Z,63.21
2022-07-26T18:40:14.955Z,62.41
2022-07-26T18:42:43.402Z,62.81
2022-07-26T18:45:13.175Z,62.09
2022-07-26T18:47:41.900Z,62.29
2022-07-26T18:50:11.563Z,62.82
2022-07-26T18:52:40.661Z,63.39
2022-07-26T18:55:12.788Z,63.52
2022-07-26T18:57:44.952Z,64.42
2022-07-26T19:00:18.179Z,65.90
2022-07-26T19:02:47.797Z,66.76
2022-07-26T19:05:17.646Z,67.43
2022-07-26T19:07:46.501Z,71.39
2022-07-26T19:10:14.658Z,73.91
2022-07-26T19:12:43.796Z,75.56
2022-07-26T19:15:12.152Z,78.22
2022-07-26T19:17:42.944Z,80.30
2022-07-26T19:20:13.079Z,82.18
2022-07-26T19:22:41.524Z,81.89
2022-07-26T19:25:11.086Z,83.35
2022-07-26T19:27:39.717Z,85.19
2022-07-26T19:30:10.390Z,85.77
2022-07-26T19:32:38.895Z,87.60
2022-07-26T19:35:10.322Z,86.21
2022-07-26T19:37:38.449Z,87.06
2022-07-26T19:40:08.074Z,86.65
2022-07-26T19:42:36.260Z,85.59
2022-07-26T19:45:04.796Z,86.21
2022-07-26T19:47:35.688Z,87.44
2022-07-26T19:50:04.717Z,89.48
2022-07-26T19:52:37.312Z,88.05
2022-07-26T19:55:06.178Z,89.17
2022-07-26T19:57:38.966Z,88.16
2022-07-26T20:00:13.608Z,89.29
2022-07-26T20:02:42.491Z,89.92
2022-07-26T20:05:13.271Z,90.89
2022-07-26T20:07:46.097Z,91.28
2022-07-26T20:10:14.274Z,91.92
2022-07-26T20:12:42.847Z,91.02
2022-07-26T20:15:12.165Z,91.88
2022-07-26T20:17:41.358Z,91.83
2022-07-26T20:20:10.644Z,92.32
2022-07-26T20:22:38.649Z,91.05
2022-07-26T20:25:09.938Z,91.50
2022-07-26T20:27:37.987Z,88.47
2022-07-26T20:30:07.346Z,90.32
2022-07-26T20:32:35.437Z,89.97
2022-07-26T20:35:03.576Z,88.32
2022-07-26T20:37:31.716Z,89.64
2022-07-26T20:40:02.190Z,93.54
2022-07-26T20:42:31.620Z,94.90
2022-07-26T20:45:01.069Z,94.61
2022-07-26T20:47:29.302Z,96.26
2022-07-26T20:50:02.997Z,97.17
2022-07-26T20:52:31.501Z,96.16
2022-07-26T20:55:00.381Z,100.00
2022-07-26T20:57:28.408Z,100.00
2022-07-26T20:59:57.788Z,100.00
2022-07-26T21:02:26.086Z,100.00
2022-07-26T21:04:54.270Z,100.00
2022-07-26T21:07:22.294Z,100.00
2022-07-26T21:09:50.451Z,100.00
2022-07-26T21:12:18.494Z,100.00
2022-07-26T21:14:46.473Z,100.00
2022-07-26T21:17:18.774Z,100.00
2022-07-26T21:19:46.783Z,100.00
2022-07-26T21:22:14.790Z,100.00
2022-07-26T21:24:42.850Z,100.00
2022-07-26T21:27:10.934Z,100.00
2022-07-26T21:29:40.256Z,100.00
2022-07-26T21:32:08.388Z,100.00
2022-07-26T21:34:37.927Z,100.00
2022-07-26T21:37:06.306Z,100.00
2022-07-26T21:39:34.335Z,100.00
2022-07-26T21:42:02.375Z,100.00
2022-07-26T21:44:30.353Z,100.00
2022-07-26T21:46:58.611Z,100.00
2022-07-26T21:49:26.626Z,100.00
2022-07-26T21:51:55.992Z,100.00
2022-07-26T21:54:24.114Z,100.00
2022-07-26T21:56:52.993Z,100.00
2022-07-26T21:59:21.339Z,100.00
2022-07-26T22:01:49.682Z,100.00
2022-07-26T22:04:18.290Z,100.00
2022-07-26T22:06:46.403Z,100.00
2022-07-26T22:09:15.886Z,100.00
2022-07-26T22:11:43.881Z,100.00
2022-07-26T22:14:11.829Z,100.00
2022-07-26T22:16:39.894Z,100.00
2022-07-26T22:19:08.783Z,100.00
2022-07-26T22:21:37.060Z,100.00
2022-07-26T22:24:05.689Z,100.00
2022-07-26T22:26:36.148Z,100.00
2022-07-26T22:29:04.128Z,100.00
2022-07-26T22:31:32.477Z,100.00
2022-07-26T22:34:00.472Z,100.00
2022-07-26T22:36:28.600Z,100.00
2022-07-26T22:38:56.643Z,100.00
2022-07-26T22:41:24.671Z,100.00
2022-07-26T22:43:54.165Z,100.00
2022-07-26T22:46:29.159Z,100.00
2022-07-26T22:48:57.605Z,100.00
2022-07-26T22:51:25.665Z,100.00
2022-07-26T22:53:53.612Z,100.00
2022-07-26T22:56:22.215Z,100.00
2022-07-26T22:58:50.218Z,100.00
2022-07-26T23:01:19.727Z,100.00
2022-07-26T23:03:49.677Z,100.00
2022-07-26T23:06:31.797Z,100.00
2022-07-26T23:09:00.548Z,100.00
2022-07-26T23:11:28.676Z,100.00
2022-07-26T23:13:59.782Z,100.00
2022-07-26T23:16:29.295Z,100.00
2022-07-26T23:18:57.391Z,100.00
2022-07-26T23:21:25.436Z,100.00
2022-07-26T23:23:53.568Z,100.00
2022-07-26T23:26:24.131Z,100.00
2022-07-26T23:28:55.603Z,100.00
2022-07-26T23:31:23.677Z,100.00
2022-07-26T23:33:54.640Z,100.00
2022-07-26T23:36:27.154Z,100.00
2022-07-26T23:38:55.380Z,100.00
2022-07-26T23:41:23.446Z,100.00
2022-07-26T23:43:52.271Z,100.00
2022-07-26T23:46:20.433Z,100.00
2022-07-26T23:48:48.552Z,100.00
2022-07-26T23:51:19.459Z,100.00
2022-07-26T23:53:47.925Z,100.00
2022-07-26T23:56:16.093Z,100.00
2022-07-26T23:58:44.503Z,100.00
